createdAt,value
2023-06-30T00:04:33.548Z,100.00
2023-06-30T00:09:34.966Z,100.00
2023-06-30T00:14:36.351Z,100.00
2023-06-30T00:19:37.763Z,100.00
2023-06-30T00:24:39.138Z,100.00
2023-06-30T00:29:40.552Z,100.00
2023-06-30T00:34:42.225Z,100.00
2023-06-30T00:39:43.591Z,100.00
2023-06-30T00:44:45.095Z,100.00
2023-06-30T00:49:46.757Z,100.00
2023-06-30T00:54:48.162Z,100.00
2023-06-30T00:59:50.394Z,100.00
2023-06-30T01:05:09.450Z,100.00
2023-06-30T01:10:15.769Z,100.00
2023-06-30T01:15:17.649Z,100.00
2023-06-30T01:20:19.815Z,100.00
2023-06-30T01:25:23.520Z,100.00
2023-06-30T01:30:25.208Z,100.00
2023-06-30T01:35:27.472Z,100.00
2023-06-30T01:40:29.351Z,100.00
2023-06-30T01:45:31.375Z,100.00
2023-06-30T01:50:33.347Z,100.00
2023-06-30T01:55:34.718Z,100.00
2023-06-30T02:00:36.103Z,100.00
2023-06-30T02:05:37.466Z,100.00
2023-06-30T02:10:38.935Z,100.00
2023-06-30T02:15:40.590Z,100.00
2023-06-30T02:20:41.976Z,100.00
2023-06-30T02:25:43.594Z,100.00
2023-06-30T02:30:45.343Z,100.00
2023-06-30T02:35:47.088Z,100.00
2023-06-30T02:40:49.126Z,100.00
2023-06-30T02:45:50.534Z,100.00
2023-06-30T02:50:51.966Z,100.00
2023-06-30T02:55:53.458Z,100.00
2023-06-30T03:00:55.646Z,100.00
2023-06-30T03:05:57.408Z,100.00
2023-06-30T03:10:58.907Z,100.00
2023-06-30T03:16:00.369Z,100.00
2023-06-30T03:21:02.832Z,100.00
2023-06-30T03:26:04.326Z,100.00
2023-06-30T03:31:05.788Z,100.00
2023-06-30T03:36:07.670Z,100.00
2023-06-30T03:41:09.102Z,100.00
2023-06-30T03:46:10.548Z,100.00
2023-06-30T03:51:11.940Z,100.00
2023-06-30T03:56:13.321Z,100.00
2023-06-30T04:01:14.696Z,100.00
2023-06-30T04:06:16.071Z,100.00
2023-06-30T04:11:17.659Z,100.00
2023-06-30T04:16:19.084Z,100.00
2023-06-30T04:21:20.469Z,100.00
2023-06-30T04:26:21.859Z,100.00
2023-06-30T04:31:23.318Z,100.00
2023-06-30T04:36:24.693Z,100.00
2023-06-30T04:41:26.256Z,100.00
2023-06-30T04:46:28.479Z,100.00
2023-06-30T04:51:29.894Z,100.00
2023-06-30T04:56:31.284Z,100.00
2023-06-30T05:01:32.744Z,100.00
2023-06-30T05:06:34.148Z,100.00
2023-06-30T05:11:35.528Z,100.00
2023-06-30T05:16:37.006Z,100.00
2023-06-30T05:21:38.457Z,100.00
2023-06-30T05:26:39.816Z,100.00
2023-06-30T05:31:41.264Z,100.00
2023-06-30T05:36:45.689Z,100.00
2023-06-30T05:41:47.076Z,100.00
2023-06-30T05:46:48.520Z,100.00
2023-06-30T05:51:49.941Z,100.00
2023-06-30T05:56:51.336Z,100.00
2023-06-30T06:01:54.000Z,100.00
2023-06-30T06:06:55.424Z,100.00
2023-06-30T06:11:56.860Z,100.00
2023-06-30T06:16:58.380Z,100.00
2023-06-30T06:21:59.786Z,100.00
2023-06-30T06:27:01.157Z,100.00
2023-06-30T06:32:02.553Z,100.00
2023-06-30T06:37:03.999Z,100.00
2023-06-30T06:42:05.586Z,100.00
2023-06-30T06:47:25.943Z,100.00
2023-06-30T06:52:27.323Z,100.00
2023-06-30T06:57:28.769Z,100.00
2023-06-30T07:02:30.194Z,100.00
2023-06-30T07:07:33.504Z,100.00
2023-06-30T07:12:35.073Z,100.00
2023-06-30T07:17:36.741Z,100.00
2023-06-30T07:22:38.257Z,100.00
2023-06-30T07:27:39.668Z,100.00
2023-06-30T07:32:42.493Z,100.00
2023-06-30T07:37:44.448Z,100.00
2023-06-30T07:42:46.012Z,100.00
2023-06-30T07:47:47.559Z,100.00
2023-06-30T07:52:50.169Z,100.00
2023-06-30T07:57:51.525Z,100.00
2023-06-30T08:02:53.517Z,100.00
2023-06-30T08:07:55.070Z,91.87
2023-06-30T08:12:56.447Z,82.17
2023-06-30T08:17:58.542Z,91.95
2023-06-30T08:23:00.211Z,87.13
2023-06-30T08:28:01.597Z,80.15
2023-06-30T08:33:03.038Z,80.10
2023-06-30T08:38:05.253Z,74.09
2023-06-30T08:43:10.521Z,87.46
2023-06-30T08:48:13.194Z,84.80
2023-06-30T08:53:14.665Z,85.38
2023-06-30T08:58:25.705Z,63.15
2023-06-30T09:03:28.517Z,61.19
2023-06-30T09:08:36.732Z,74.61
2023-06-30T09:13:39.459Z,93.45
2023-06-30T09:18:40.931Z,100.00
2023-06-30T09:23:42.402Z,100.00
2023-06-30T09:28:44.318Z,100.00
2023-06-30T09:33:45.743Z,100.00
2023-06-30T09:38:47.183Z,100.00
2023-06-30T09:43:48.633Z,100.00
2023-06-30T09:48:53.888Z,85.39
2023-06-30T09:53:55.350Z,69.40
2023-06-30T09:58:57.513Z,99.37
2023-06-30T10:03:59.000Z,98.81
2023-06-30T10:09:01.874Z,100.00
2023-06-30T10:14:03.462Z,91.87
2023-06-30T10:19:06.057Z,75.68
2023-06-30T10:24:08.190Z,80.90
2023-06-30T10:29:10.128Z,76.13
2023-06-30T10:34:12.274Z,100.00
2023-06-30T10:39:14.166Z,96.05
2023-06-30T10:44:15.808Z,93.22
2023-06-30T10:49:17.979Z,71.96
2023-06-30T10:54:23.028Z,66.43
2023-06-30T10:59:24.611Z,76.26
2023-06-30T11:04:26.150Z,62.09
2023-06-30T11:09:27.662Z,63.28
2023-06-30T11:14:32.055Z,63.53
2023-06-30T11:19:35.816Z,69.97
2023-06-30T11:24:37.274Z,64.96
2023-06-30T11:29:39.718Z,68.67
2023-06-30T11:34:41.183Z,60.38
2023-06-30T11:39:50.007Z,75.63
2023-06-30T11:44:51.786Z,65.62
2023-06-30T11:49:53.183Z,69.84
2023-06-30T11:54:54.562Z,70.42
2023-06-30T11:59:56.000Z,67.42
2023-06-30T12:04:57.439Z,65.05
2023-06-30T12:10:02.241Z,61.55
2023-06-30T12:15:04.676Z,63.15
2023-06-30T12:20:06.557Z,64.27
2023-06-30T12:25:11.433Z,64.45
2023-06-30T12:30:19.548Z,71.14
2023-06-30T12:35:27.688Z,67.74
2023-06-30T12:40:29.162Z,64.94
2023-06-30T12:45:31.123Z,65.11
2023-06-30T12:50:33.235Z,71.23
2023-06-30T12:55:34.645Z,64.12
2023-06-30T13:00:36.072Z,56.25
2023-06-30T13:05:37.826Z,65.92
2023-06-30T13:10:39.241Z,58.00
2023-06-30T13:15:40.650Z,57.02
2023-06-30T13:20:44.071Z,55.91
2023-06-30T13:25:45.814Z,65.10
2023-06-30T13:35:49.093Z,70.97
2023-06-30T13:40:50.480Z,71.85
2023-06-30T13:45:51.952Z,72.01
2023-06-30T13:50:53.439Z,64.88
2023-06-30T13:55:56.690Z,66.19
2023-06-30T14:00:58.173Z,64.99
2023-06-30T14:05:59.657Z,61.60
2023-06-30T14:11:01.107Z,55.79
2023-06-30T14:16:02.509Z,53.83
2023-06-30T14:21:03.918Z,52.24
2023-06-30T14:26:05.363Z,55.64
2023-06-30T14:31:06.765Z,57.74
2023-06-30T14:36:08.186Z,60.18
2023-06-30T14:41:09.577Z,58.99
2023-06-30T14:46:11.005Z,55.09
2023-06-30T14:51:12.417Z,52.48
2023-06-30T14:56:13.828Z,58.29
2023-06-30T15:01:15.231Z,54.55
2023-06-30T15:06:16.753Z,55.39
2023-06-30T15:11:18.179Z,57.32
2023-06-30T15:16:19.681Z,57.85
2023-06-30T15:21:21.104Z,59.48
2023-06-30T15:26:22.498Z,61.35
2023-06-30T15:31:23.880Z,62.76
2023-06-30T15:36:25.263Z,60.70
2023-06-30T15:41:26.654Z,55.63
2023-06-30T15:46:28.076Z,55.94
2023-06-30T15:51:29.854Z,59.09
2023-06-30T15:56:31.259Z,61.46
2023-06-30T16:01:32.634Z,63.25
2023-06-30T16:06:34.012Z,60.03
2023-06-30T16:11:35.427Z,61.06
2023-06-30T16:16:36.950Z,62.14
2023-06-30T16:21:38.354Z,61.05
2023-06-30T16:26:39.759Z,63.59
2023-06-30T16:31:41.180Z,62.97
2023-06-30T16:36:42.577Z,58.93
2023-06-30T16:41:43.989Z,63.59
2023-06-30T16:46:45.378Z,62.78
2023-06-30T16:51:47.061Z,64.48
2023-06-30T16:56:48.465Z,62.53
2023-06-30T17:01:56.101Z,62.93
2023-06-30T17:06:58.081Z,67.75
2023-06-30T17:11:59.649Z,65.09
2023-06-30T17:17:01.110Z,68.75
2023-06-30T17:22:02.550Z,69.77
2023-06-30T17:27:04.015Z,69.56
2023-06-30T17:32:05.656Z,70.47
2023-06-30T17:37:07.912Z,74.00
2023-06-30T17:42:09.449Z,72.54
2023-06-30T17:47:10.999Z,73.57
2023-06-30T17:52:13.072Z,75.05
2023-06-30T17:57:14.621Z,74.41
2023-06-30T18:02:16.143Z,81.86
2023-06-30T18:07:17.639Z,83.13
2023-06-30T18:12:19.186Z,81.17
2023-06-30T18:17:20.624Z,80.30
2023-06-30T18:22:24.416Z,76.70
2023-06-30T18:27:25.913Z,80.38
2023-06-30T18:32:27.864Z,83.24
2023-06-30T18:37:29.517Z,88.36
2023-06-30T18:42:30.892Z,94.11
2023-06-30T18:47:32.476Z,97.33
2023-06-30T18:52:33.914Z,95.25
2023-06-30T18:57:35.413Z,96.86
2023-06-30T19:02:36.868Z,100.00
2023-06-30T19:07:38.331Z,100.00
2023-06-30T19:12:39.703Z,100.00
2023-06-30T19:17:41.121Z,100.00
2023-06-30T19:22:42.515Z,100.00
2023-06-30T19:27:43.876Z,100.00
2023-06-30T19:32:45.328Z,100.00
2023-06-30T19:37:46.752Z,100.00
2023-06-30T19:42:48.117Z,100.00
2023-06-30T19:47:49.513Z,100.00
2023-06-30T19:52:50.970Z,100.00
2023-06-30T19:57:53.835Z,100.00
2023-06-30T20:02:55.248Z,100.00
2023-06-30T20:07:56.683Z,100.00
2023-06-30T20:12:58.076Z,100.00
2023-06-30T20:17:59.476Z,100.00
2023-06-30T20:23:00.896Z,100.00
2023-06-30T20:28:02.253Z,100.00
2023-06-30T20:33:03.789Z,100.00
2023-06-30T20:38:05.176Z,100.00
2023-06-30T20:43:06.558Z,100.00
2023-06-30T20:48:08.973Z,100.00
2023-06-30T20:53:10.451Z,100.00
2023-06-30T20:58:11.817Z,100.00
2023-06-30T21:03:13.401Z,100.00
2023-06-30T21:08:14.845Z,100.00
2023-06-30T21:13:16.215Z,100.00
2023-06-30T21:18:17.577Z,100.00
2023-06-30T21:23:18.974Z,100.00
2023-06-30T21:28:20.423Z,100.00
2023-06-30T21:33:21.800Z,100.00
2023-06-30T21:38:23.158Z,100.00
2023-06-30T21:43:24.554Z,100.00
2023-06-30T21:48:25.880Z,100.00
2023-06-30T21:53:27.290Z,100.00
2023-06-30T21:58:28.687Z,100.00
2023-06-30T22:03:30.767Z,100.00
2023-06-30T22:08:32.173Z,100.00
2023-06-30T22:13:33.519Z,100.00
2023-06-30T22:18:34.915Z,100.00
2023-06-30T22:23:36.321Z,100.00
2023-06-30T22:28:37.797Z,100.00
2023-06-30T22:33:39.166Z,100.00
2023-06-30T22:38:40.613Z,100.00
2023-06-30T22:43:41.977Z,100.00
2023-06-30T22:48:43.358Z,100.00
2023-06-30T22:53:44.729Z,100.00
2023-06-30T22:58:46.105Z,100.00
2023-06-30T23:03:47.557Z,100.00
2023-06-30T23:08:48.971Z,100.00
2023-06-30T23:13:50.363Z,100.00
2023-06-30T23:18:51.835Z,100.00
2023-06-30T23:23:53.271Z,100.00
2023-06-30T23:28:55.121Z,100.00
2023-06-30T23:33:56.480Z,100.00
2023-06-30T23:38:58.050Z,100.00
2023-06-30T23:43:59.406Z,100.00
2023-06-30T23:49:00.814Z,100.00
2023-06-30T23:54:02.197Z,100.00
2023-06-30T23:59:03.582Z,100.00
